sensor_id;sensor_type;location;lat;lon;timestamp;P1;durP1;ratioP1;P2;durP2;ratioP2
23123;SDS011;11731;48.592;8.858;2023-01-19T00:00:42;10.77;;;6.80;;
23123;SDS011;11731;48.592;8.858;2023-01-19T00:03:09;12.30;;;7.10;;
23123;SDS011;11731;48.592;8.858;2023-01-19T00:05:40;10.93;;;6.80;;
23123;SDS011;11731;48.592;8.858;2023-01-19T00:08:07;13.33;;;7.43;;
23123;SDS011;11731;48.592;8.858;2023-01-19T00:10:39;12.30;;;6.77;;
23123;SDS011;11731;48.592;8.858;2023-01-19T00:13:13;9.07;;;6.97;;
23123;SDS011;11731;48.592;8.858;2023-01-19T00:15:42;14.80;;;7.23;;
23123;SDS011;11731;48.592;8.858;2023-01-19T00:18:09;10.43;;;6.50;;
23123;SDS011;11731;48.592;8.858;2023-01-19T00:20:36;8.97;;;6.10;;
23123;SDS011;11731;48.592;8.858;2023-01-19T00:23:03;10.77;;;7.10;;
23123;SDS011;11731;48.592;8.858;2023-01-19T00:25:31;8.53;;;5.93;;
23123;SDS011;11731;48.592;8.858;2023-01-19T00:27:58;10.80;;;6.63;;
23123;SDS011;11731;48.592;8.858;2023-01-19T00:30:27;9.80;;;6.30;;
23123;SDS011;11731;48.592;8.858;2023-01-19T00:32:54;9.47;;;6.47;;
23123;SDS011;11731;48.592;8.858;2023-01-19T00:35:29;11.30;;;7.30;;
23123;SDS011;11731;48.592;8.858;2023-01-19T00:37:57;11.30;;;7.13;;
23123;SDS011;11731;48.592;8.858;2023-01-19T00:40:24;12.83;;;7.10;;
23123;SDS011;11731;48.592;8.858;2023-01-19T00:42:51;11.17;;;7.20;;
23123;SDS011;11731;48.592;8.858;2023-01-19T00:45:19;8.30;;;6.47;;
23123;SDS011;11731;48.592;8.858;2023-01-19T00:47:48;8.90;;;6.50;;
23123;SDS011;11731;48.592;8.858;2023-01-19T00:50:19;9.63;;;6.30;;
23123;SDS011;11731;48.592;8.858;2023-01-19T00:52:46;10.40;;;6.63;;
23123;SDS011;11731;48.592;8.858;2023-01-19T00:55:13;14.00;;;7.23;;
23123;SDS011;11731;48.592;8.858;2023-01-19T00:57:41;10.47;;;7.40;;
23123;SDS011;11731;48.592;8.858;2023-01-19T01:00:09;10.37;;;6.77;;
23123;SDS011;11731;48.592;8.858;2023-01-19T01:02:37;11.40;;;6.47;;
23123;SDS011;11731;48.592;8.858;2023-01-19T01:05:07;9.90;;;6.10;;
23123;SDS011;11731;48.592;8.858;2023-01-19T01:07:34;12.67;;;6.70;;
23123;SDS011;11731;48.592;8.858;2023-01-19T01:10:06;12.00;;;6.73;;
23123;SDS011;11731;48.592;8.858;2023-01-19T01:12:34;12.43;;;7.60;;
23123;SDS011;11731;48.592;8.858;2023-01-19T01:15:01;10.60;;;6.57;;
23123;SDS011;11731;48.592;8.858;2023-01-19T01:20:36;9.33;;;5.77;;
23123;SDS011;11731;48.592;8.858;2023-01-19T01:23:03;13.40;;;6.43;;
23123;SDS011;11731;48.592;8.858;2023-01-19T01:25:30;10.27;;;6.00;;
23123;SDS011;11731;48.592;8.858;2023-01-19T01:28:15;10.27;;;6.67;;
23123;SDS011;11731;48.592;8.858;2023-01-19T01:30:42;12.40;;;6.47;;
23123;SDS011;11731;48.592;8.858;2023-01-19T01:33:09;11.43;;;5.80;;
23123;SDS011;11731;48.592;8.858;2023-01-19T01:35:38;9.30;;;6.20;;
23123;SDS011;11731;48.592;8.858;2023-01-19T01:38:05;11.10;;;6.17;;
23123;SDS011;11731;48.592;8.858;2023-01-19T01:40:32;10.57;;;6.60;;
23123;SDS011;11731;48.592;8.858;2023-01-19T01:42:59;9.87;;;6.00;;
23123;SDS011;11731;48.592;8.858;2023-01-19T01:45:28;9.47;;;6.43;;
23123;SDS011;11731;48.592;8.858;2023-01-19T01:47:57;9.77;;;5.60;;
23123;SDS011;11731;48.592;8.858;2023-01-19T01:50:28;12.17;;;6.30;;
23123;SDS011;11731;48.592;8.858;2023-01-19T01:53:02;11.53;;;6.97;;
23123;SDS011;11731;48.592;8.858;2023-01-19T01:55:33;11.87;;;6.10;;
23123;SDS011;11731;48.592;8.858;2023-01-19T01:58:02;14.40;;;6.23;;
23123;SDS011;11731;48.592;8.858;2023-01-19T02:00:31;11.13;;;7.03;;
23123;SDS011;11731;48.592;8.858;2023-01-19T02:03:19;9.83;;;6.63;;
23123;SDS011;11731;48.592;8.858;2023-01-19T02:05:46;7.83;;;5.33;;
23123;SDS011;11731;48.592;8.858;2023-01-19T02:08:15;10.17;;;6.43;;
23123;SDS011;11731;48.592;8.858;2023-01-19T02:11:03;9.53;;;6.23;;
23123;SDS011;11731;48.592;8.858;2023-01-19T02:13:50;13.63;;;6.30;;
23123;SDS011;11731;48.592;8.858;2023-01-19T02:16:18;9.23;;;5.80;;
23123;SDS011;11731;48.592;8.858;2023-01-19T02:18:45;7.93;;;5.87;;
23123;SDS011;11731;48.592;8.858;2023-01-19T02:21:19;9.00;;;5.90;;
23123;SDS011;11731;48.592;8.858;2023-01-19T02:24:05;9.37;;;6.07;;
23123;SDS011;11731;48.592;8.858;2023-01-19T02:26:33;9.03;;;5.57;;
23123;SDS011;11731;48.592;8.858;2023-01-19T02:29:06;8.30;;;5.87;;
23123;SDS011;11731;48.592;8.858;2023-01-19T02:35:00;8.90;;;5.37;;
23123;SDS011;11731;48.592;8.858;2023-01-19T02:37:27;9.17;;;5.30;;
23123;SDS011;11731;48.592;8.858;2023-01-19T02:44:27;12.47;;;6.20;;
23123;SDS011;11731;48.592;8.858;2023-01-19T02:45:50;11.40;;;6.50;;
23123;SDS011;11731;48.592;8.858;2023-01-19T02:48:57;10.17;;;5.97;;
23123;SDS011;11731;48.592;8.858;2023-01-19T02:51:14;11.43;;;6.53;;
23123;SDS011;11731;48.592;8.858;2023-01-19T02:53:55;10.10;;;6.70;;
23123;SDS011;11731;48.592;8.858;2023-01-19T02:56:45;9.70;;;5.90;;
23123;SDS011;11731;48.592;8.858;2023-01-19T02:59:37;8.60;;;5.93;;
23123;SDS011;11731;48.592;8.858;2023-01-19T03:03:53;11.40;;;6.50;;
23123;SDS011;11731;48.592;8.858;2023-01-19T03:06:17;9.90;;;6.17;;
23123;SDS011;11731;48.592;8.858;2023-01-19T03:09:08;9.47;;;6.30;;
23123;SDS011;11731;48.592;8.858;2023-01-19T03:11:40;8.37;;;6.10;;
23123;SDS011;11731;48.592;8.858;2023-01-19T03:14:47;9.17;;;6.00;;
23123;SDS011;11731;48.592;8.858;2023-01-19T03:20:26;8.70;;;6.07;;
23123;SDS011;11731;48.592;8.858;2023-01-19T03:22:54;10.10;;;6.10;;
23123;SDS011;11731;48.592;8.858;2023-01-19T03:25:25;8.23;;;5.80;;
23123;SDS011;11731;48.592;8.858;2023-01-19T03:27:57;11.77;;;6.63;;
23123;SDS011;11731;48.592;8.858;2023-01-19T03:30:26;8.53;;;5.70;;
23123;SDS011;11731;48.592;8.858;2023-01-19T03:32:58;9.73;;;6.33;;
23123;SDS011;11731;48.592;8.858;2023-01-19T03:36:33;12.97;;;6.20;;
23123;SDS011;11731;48.592;8.858;2023-01-19T03:38:48;8.67;;;5.87;;
23123;SDS011;11731;48.592;8.858;2023-01-19T03:41:16;7.70;;;5.37;;
23123;SDS011;11731;48.592;8.858;2023-01-19T03:43:50;8.77;;;6.10;;
23123;SDS011;11731;48.592;8.858;2023-01-19T03:46:18;12.30;;;6.30;;
23123;SDS011;11731;48.592;8.858;2023-01-19T03:48:46;8.63;;;5.90;;
23123;SDS011;11731;48.592;8.858;2023-01-19T03:51:28;11.07;;;6.23;;
23123;SDS011;11731;48.592;8.858;2023-01-19T03:53:56;10.43;;;6.33;;
23123;SDS011;11731;48.592;8.858;2023-01-19T03:56:55;10.53;;;5.73;;
23123;SDS011;11731;48.592;8.858;2023-01-19T03:59:16;13.90;;;6.40;;
23123;SDS011;11731;48.592;8.858;2023-01-19T04:01:52;10.93;;;6.73;;
23123;SDS011;11731;48.592;8.858;2023-01-19T04:04:43;9.43;;;6.20;;
23123;SDS011;11731;48.592;8.858;2023-01-19T04:07:24;8.23;;;5.73;;
23123;SDS011;11731;48.592;8.858;2023-01-19T04:09:52;12.37;;;6.60;;
23123;SDS011;11731;48.592;8.858;2023-01-19T04:12:19;10.60;;;6.47;;
23123;SDS011;11731;48.592;8.858;2023-01-19T04:14:48;9.20;;;6.07;;
23123;SDS011;11731;48.592;8.858;2023-01-19T04:17:17;10.17;;;6.70;;
23123;SDS011;11731;48.592;8.858;2023-01-19T04:19:52;9.37;;;6.47;;
23123;SDS011;11731;48.592;8.858;2023-01-19T04:22:19;10.90;;;6.00;;
23123;SDS011;11731;48.592;8.858;2023-01-19T04:24:46;9.87;;;6.33;;
23123;SDS011;11731;48.592;8.858;2023-01-19T04:33:53;10.03;;;6.07;;
23123;SDS011;11731;48.592;8.858;2023-01-19T04:36:24;11.63;;;6.53;;
23123;SDS011;11731;48.592;8.858;2023-01-19T04:38:52;10.37;;;6.60;;
23123;SDS011;11731;48.592;8.858;2023-01-19T04:41:19;10.70;;;6.13;;
23123;SDS011;11731;48.592;8.858;2023-01-19T04:43:46;8.23;;;6.03;;
23123;SDS011;11731;48.592;8.858;2023-01-19T04:46:13;10.07;;;5.80;;
23123;SDS011;11731;48.592;8.858;2023-01-19T04:48:40;11.77;;;6.40;;
23123;SDS011;11731;48.592;8.858;2023-01-19T04:51:08;8.83;;;5.90;;
23123;SDS011;11731;48.592;8.858;2023-01-19T04:53:35;9.37;;;6.43;;
23123;SDS011;11731;48.592;8.858;2023-01-19T04:56:03;10.57;;;6.83;;
23123;SDS011;11731;48.592;8.858;2023-01-19T04:58:31;10.50;;;6.70;;
23123;SDS011;11731;48.592;8.858;2023-01-19T05:00:58;7.67;;;5.83;;
23123;SDS011;11731;48.592;8.858;2023-01-19T05:03:31;9.00;;;5.40;;
23123;SDS011;11731;48.592;8.858;2023-01-19T05:06:07;8.43;;;5.97;;
23123;SDS011;11731;48.592;8.858;2023-01-19T05:08:38;11.67;;;6.27;;
23123;SDS011;11731;48.592;8.858;2023-01-19T05:13:52;9.43;;;5.80;;
23123;SDS011;11731;48.592;8.858;2023-01-19T05:16:19;11.03;;;5.83;;
23123;SDS011;11731;48.592;8.858;2023-01-19T05:19:00;9.47;;;5.47;;
23123;SDS011;11731;48.592;8.858;2023-01-19T05:21:28;7.23;;;5.37;;
23123;SDS011;11731;48.592;8.858;2023-01-19T05:23:55;8.80;;;5.50;;
23123;SDS011;11731;48.592;8.858;2023-01-19T05:26:22;8.47;;;5.23;;
23123;SDS011;11731;48.592;8.858;2023-01-19T05:28:49;7.83;;;5.53;;
23123;SDS011;11731;48.592;8.858;2023-01-19T05:31:16;8.27;;;5.03;;
23123;SDS011;11731;48.592;8.858;2023-01-19T05:33:43;10.43;;;6.47;;
23123;SDS011;11731;48.592;8.858;2023-01-19T05:36:10;9.13;;;5.73;;
23123;SDS011;11731;48.592;8.858;2023-01-19T05:38:38;8.90;;;5.27;;
23123;SDS011;11731;48.592;8.858;2023-01-19T05:41:05;8.63;;;5.43;;
23123;SDS011;11731;48.592;8.858;2023-01-19T05:43:51;7.30;;;5.30;;
23123;SDS011;11731;48.592;8.858;2023-01-19T05:46:20;7.87;;;5.13;;
23123;SDS011;11731;48.592;8.858;2023-01-19T05:48:52;7.67;;;5.43;;
23123;SDS011;11731;48.592;8.858;2023-01-19T05:51:39;9.97;;;5.60;;
23123;SDS011;11731;48.592;8.858;2023-01-19T05:54:11;10.30;;;5.80;;
23123;SDS011;11731;48.592;8.858;2023-01-19T05:56:39;6.90;;;5.23;;
23123;SDS011;11731;48.592;8.858;2023-01-19T05:59:06;9.97;;;5.60;;
23123;SDS011;11731;48.592;8.858;2023-01-19T06:01:34;8.93;;;5.70;;
23123;SDS011;11731;48.592;8.858;2023-01-19T06:04:02;12.13;;;7.43;;
23123;SDS011;11731;48.592;8.858;2023-01-19T06:06:29;12.23;;;7.80;;
23123;SDS011;11731;48.592;8.858;2023-01-19T06:08:59;9.77;;;5.87;;
23123;SDS011;11731;48.592;8.858;2023-01-19T06:11:29;7.37;;;5.13;;
23123;SDS011;11731;48.592;8.858;2023-01-19T06:13:56;9.40;;;5.07;;
23123;SDS011;11731;48.592;8.858;2023-01-19T06:16:23;7.97;;;5.60;;
23123;SDS011;11731;48.592;8.858;2023-01-19T06:18:50;10.70;;;6.73;;
23123;SDS011;11731;48.592;8.858;2023-01-19T06:21:17;10.77;;;6.73;;
23123;SDS011;11731;48.592;8.858;2023-01-19T06:23:44;9.27;;;6.00;;
23123;SDS011;11731;48.592;8.858;2023-01-19T06:26:11;11.13;;;6.67;;
23123;SDS011;11731;48.592;8.858;2023-01-19T06:28:39;12.33;;;6.70;;
23123;SDS011;11731;48.592;8.858;2023-01-19T06:31:06;10.63;;;6.47;;
23123;SDS011;11731;48.592;8.858;2023-01-19T06:33:33;9.90;;;6.30;;
23123;SDS011;11731;48.592;8.858;2023-01-19T06:36:00;7.30;;;5.17;;
23123;SDS011;11731;48.592;8.858;2023-01-19T06:38:29;12.23;;;7.27;;
23123;SDS011;11731;48.592;8.858;2023-01-19T06:41:19;10.00;;;6.37;;
23123;SDS011;11731;48.592;8.858;2023-01-19T06:43:50;13.03;;;7.90;;
23123;SDS011;11731;48.592;8.858;2023-01-19T06:46:21;10.50;;;7.30;;
23123;SDS011;11731;48.592;8.858;2023-01-19T06:48:48;12.20;;;6.53;;
23123;SDS011;11731;48.592;8.858;2023-01-19T06:51:14;12.63;;;7.13;;
23123;SDS011;11731;48.592;8.858;2023-01-19T06:53:42;10.53;;;6.23;;
23123;SDS011;11731;48.592;8.858;2023-01-19T06:56:09;10.90;;;6.23;;
23123;SDS011;11731;48.592;8.858;2023-01-19T06:58:36;10.27;;;6.00;;
23123;SDS011;11731;48.592;8.858;2023-01-19T07:01:05;10.70;;;6.00;;
23123;SDS011;11731;48.592;8.858;2023-01-19T07:03:32;14.03;;;6.77;;
23123;SDS011;11731;48.592;8.858;2023-01-19T07:06:02;11.10;;;6.27;;
23123;SDS011;11731;48.592;8.858;2023-01-19T07:08:30;8.90;;;5.70;;
23123;SDS011;11731;48.592;8.858;2023-01-19T07:10:58;9.07;;;6.23;;
23123;SDS011;11731;48.592;8.858;2023-01-19T07:13:26;11.63;;;6.83;;
23123;SDS011;11731;48.592;8.858;2023-01-19T07:15:54;13.83;;;7.70;;
23123;SDS011;11731;48.592;8.858;2023-01-19T07:18:25;15.00;;;8.03;;
23123;SDS011;11731;48.592;8.858;2023-01-19T07:20:55;13.17;;;7.53;;
23123;SDS011;11731;48.592;8.858;2023-01-19T07:23:37;10.83;;;6.90;;
23123;SDS011;11731;48.592;8.858;2023-01-19T07:26:08;10.13;;;6.60;;
23123;SDS011;11731;48.592;8.858;2023-01-19T07:28:35;7.93;;;5.87;;
23123;SDS011;11731;48.592;8.858;2023-01-19T07:31:02;10.87;;;6.17;;
23123;SDS011;11731;48.592;8.858;2023-01-19T07:33:30;9.93;;;6.00;;
23123;SDS011;11731;48.592;8.858;2023-01-19T07:35:57;9.73;;;5.90;;
23123;SDS011;11731;48.592;8.858;2023-01-19T07:38:24;10.73;;;5.87;;
23123;SDS011;11731;48.592;8.858;2023-01-19T07:40:51;8.50;;;6.00;;
23123;SDS011;11731;48.592;8.858;2023-01-19T07:43:25;9.27;;;5.80;;
23123;SDS011;11731;48.592;8.858;2023-01-19T07:45:54;8.53;;;5.37;;
23123;SDS011;11731;48.592;8.858;2023-01-19T07:48:24;10.47;;;6.37;;
23123;SDS011;11731;48.592;8.858;2023-01-19T07:50:59;8.47;;;5.80;;
23123;SDS011;11731;48.592;8.858;2023-01-19T07:53:29;8.23;;;5.50;;
23123;SDS011;11731;48.592;8.858;2023-01-19T07:55:56;9.00;;;5.53;;
23123;SDS011;11731;48.592;8.858;2023-01-19T07:58:23;8.70;;;5.83;;
23123;SDS011;11731;48.592;8.858;2023-01-19T08:00:51;8.13;;;5.13;;
23123;SDS011;11731;48.592;8.858;2023-01-19T08:03:18;6.70;;;4.43;;
23123;SDS011;11731;48.592;8.858;2023-01-19T08:05:49;9.07;;;5.47;;
23123;SDS011;11731;48.592;8.858;2023-01-19T08:08:18;7.87;;;4.90;;
23123;SDS011;11731;48.592;8.858;2023-01-19T08:10:48;9.20;;;5.10;;
23123;SDS011;11731;48.592;8.858;2023-01-19T08:13:15;9.70;;;5.70;;
23123;SDS011;11731;48.592;8.858;2023-01-19T08:15:42;9.20;;;5.03;;
23123;SDS011;11731;48.592;8.858;2023-01-19T08:18:10;8.03;;;5.20;;
23123;SDS011;11731;48.592;8.858;2023-01-19T08:20:39;9.50;;;5.53;;
23123;SDS011;11731;48.592;8.858;2023-01-19T08:23:06;7.97;;;5.20;;
23123;SDS011;11731;48.592;8.858;2023-01-19T08:25:44;9.37;;;5.83;;
23123;SDS011;11731;48.592;8.858;2023-01-19T08:28:12;8.33;;;5.70;;
23123;SDS011;11731;48.592;8.858;2023-01-19T08:30:40;9.37;;;5.07;;
23123;SDS011;11731;48.592;8.858;2023-01-19T08:33:07;9.73;;;5.93;;
23123;SDS011;11731;48.592;8.858;2023-01-19T08:35:35;8.77;;;5.40;;
23123;SDS011;11731;48.592;8.858;2023-01-19T08:38:03;10.00;;;5.23;;
23123;SDS011;11731;48.592;8.858;2023-01-19T08:40:31;10.30;;;5.50;;
23123;SDS011;11731;48.592;8.858;2023-01-19T08:43:00;6.83;;;4.57;;
23123;SDS011;11731;48.592;8.858;2023-01-19T08:45:30;8.43;;;4.90;;
23123;SDS011;11731;48.592;8.858;2023-01-19T08:47:57;7.73;;;5.47;;
23123;SDS011;11731;48.592;8.858;2023-01-19T08:50:25;7.40;;;4.93;;
23123;SDS011;11731;48.592;8.858;2023-01-19T08:52:54;10.13;;;5.20;;
23123;SDS011;11731;48.592;8.858;2023-01-19T08:55:21;8.60;;;5.20;;
23123;SDS011;11731;48.592;8.858;2023-01-19T08:57:49;8.30;;;5.80;;
23123;SDS011;11731;48.592;8.858;2023-01-19T09:00:18;9.57;;;4.77;;
23123;SDS011;11731;48.592;8.858;2023-01-19T09:02:46;11.03;;;4.83;;
23123;SDS011;11731;48.592;8.858;2023-01-19T09:05:13;8.47;;;4.63;;
23123;SDS011;11731;48.592;8.858;2023-01-19T09:07:41;8.40;;;4.93;;
23123;SDS011;11731;48.592;8.858;2023-01-19T09:10:10;9.03;;;4.43;;
23123;SDS011;11731;48.592;8.858;2023-01-19T09:12:37;7.30;;;4.53;;
23123;SDS011;11731;48.592;8.858;2023-01-19T09:15:04;6.90;;;4.17;;
23123;SDS011;11731;48.592;8.858;2023-01-19T09:17:34;6.67;;;4.53;;
23123;SDS011;11731;48.592;8.858;2023-01-19T09:20:00;4.97;;;3.80;;
23123;SDS011;11731;48.592;8.858;2023-01-19T09:22:28;7.10;;;3.90;;
23123;SDS011;11731;48.592;8.858;2023-01-19T09:24:55;4.93;;;3.50;;
23123;SDS011;11731;48.592;8.858;2023-01-19T09:27:22;6.53;;;4.17;;
23123;SDS011;11731;48.592;8.858;2023-01-19T09:29:49;9.53;;;4.20;;
23123;SDS011;11731;48.592;8.858;2023-01-19T09:32:18;5.50;;;4.10;;
23123;SDS011;11731;48.592;8.858;2023-01-19T09:34:47;6.80;;;4.37;;
23123;SDS011;11731;48.592;8.858;2023-01-19T09:37:15;5.13;;;4.07;;
23123;SDS011;11731;48.592;8.858;2023-01-19T09:39:42;6.20;;;4.43;;
23123;SDS011;11731;48.592;8.858;2023-01-19T09:42:12;6.40;;;4.03;;
23123;SDS011;11731;48.592;8.858;2023-01-19T09:44:45;7.60;;;4.10;;
23123;SDS011;11731;48.592;8.858;2023-01-19T09:47:15;6.30;;;3.93;;
23123;SDS011;11731;48.592;8.858;2023-01-19T09:49:47;5.53;;;3.70;;
23123;SDS011;11731;48.592;8.858;2023-01-19T09:52:17;5.43;;;4.33;;
23123;SDS011;11731;48.592;8.858;2023-01-19T09:54:48;7.47;;;4.17;;
23123;SDS011;11731;48.592;8.858;2023-01-19T09:57:19;4.70;;;3.47;;
23123;SDS011;11731;48.592;8.858;2023-01-19T09:59:46;5.57;;;3.80;;
23123;SDS011;11731;48.592;8.858;2023-01-19T10:02:21;8.40;;;4.23;;
23123;SDS011;11731;48.592;8.858;2023-01-19T10:05:02;6.87;;;4.30;;
23123;SDS011;11731;48.592;8.858;2023-01-19T10:07:32;8.07;;;4.93;;
23123;SDS011;11731;48.592;8.858;2023-01-19T10:10:16;7.57;;;4.50;;
23123;SDS011;11731;48.592;8.858;2023-01-19T10:12:51;6.90;;;4.47;;
23123;SDS011;11731;48.592;8.858;2023-01-19T10:15:29;6.33;;;4.63;;
23123;SDS011;11731;48.592;8.858;2023-01-19T10:18:08;6.17;;;3.93;;
23123;SDS011;11731;48.592;8.858;2023-01-19T10:20:43;7.73;;;4.33;;
23123;SDS011;11731;48.592;8.858;2023-01-19T10:23:26;7.33;;;3.90;;
23123;SDS011;11731;48.592;8.858;2023-01-19T10:26:00;6.07;;;3.93;;
23123;SDS011;11731;48.592;8.858;2023-01-19T10:28:32;5.37;;;3.70;;
23123;SDS011;11731;48.592;8.858;2023-01-19T10:31:01;5.03;;;3.83;;
23123;SDS011;11731;48.592;8.858;2023-01-19T10:33:30;12.30;;;4.70;;
23123;SDS011;11731;48.592;8.858;2023-01-19T10:35:59;6.10;;;4.03;;
23123;SDS011;11731;48.592;8.858;2023-01-19T10:38:29;6.47;;;4.30;;
23123;SDS011;11731;48.592;8.858;2023-01-19T10:40:59;6.23;;;4.13;;
23123;SDS011;11731;48.592;8.858;2023-01-19T10:43:39;6.90;;;4.07;;
23123;SDS011;11731;48.592;8.858;2023-01-19T10:46:14;7.03;;;4.27;;
23123;SDS011;11731;48.592;8.858;2023-01-19T10:48:46;8.03;;;4.77;;
23123;SDS011;11731;48.592;8.858;2023-01-19T10:51:16;6.73;;;4.27;;
23123;SDS011;11731;48.592;8.858;2023-01-19T10:53:56;8.67;;;4.30;;
23123;SDS011;11731;48.592;8.858;2023-01-19T10:56:26;5.63;;;4.03;;
23123;SDS011;11731;48.592;8.858;2023-01-19T10:58:56;7.30;;;4.00;;
23123;SDS011;11731;48.592;8.858;2023-01-19T11:01:26;4.87;;;3.63;;
23123;SDS011;11731;48.592;8.858;2023-01-19T11:03:54;10.53;;;3.87;;
23123;SDS011;11731;48.592;8.858;2023-01-19T11:06:31;5.73;;;4.20;;
23123;SDS011;11731;48.592;8.858;2023-01-19T11:09:10;8.40;;;4.13;;
23123;SDS011;11731;48.592;8.858;2023-01-19T11:11:44;4.70;;;3.80;;
23123;SDS011;11731;48.592;8.858;2023-01-19T11:14:17;8.83;;;4.27;;
23123;SDS011;11731;48.592;8.858;2023-01-19T11:16:46;4.70;;;3.80;;
23123;SDS011;11731;48.592;8.858;2023-01-19T11:19:19;7.80;;;3.97;;
23123;SDS011;11731;48.592;8.858;2023-01-19T11:21:51;5.47;;;4.20;;
23123;SDS011;11731;48.592;8.858;2023-01-19T11:24:32;4.70;;;3.40;;
23123;SDS011;11731;48.592;8.858;2023-01-19T11:27:01;6.07;;;3.40;;
23123;SDS011;11731;48.592;8.858;2023-01-19T11:30:52;5.80;;;3.93;;
23123;SDS011;11731;48.592;8.858;2023-01-19T11:32:48;6.20;;;3.60;;
23123;SDS011;11731;48.592;8.858;2023-01-19T11:35:31;5.90;;;3.50;;
23123;SDS011;11731;48.592;8.858;2023-01-19T11:38:05;6.27;;;4.00;;
23123;SDS011;11731;48.592;8.858;2023-01-19T11:40:39;6.67;;;3.53;;
23123;SDS011;11731;48.592;8.858;2023-01-19T11:43:11;4.63;;;3.97;;
23123;SDS011;11731;48.592;8.858;2023-01-19T11:45:38;7.03;;;4.10;;
23123;SDS011;11731;48.592;8.858;2023-01-19T11:48:06;4.63;;;3.80;;
23123;SDS011;11731;48.592;8.858;2023-01-19T11:50:41;7.43;;;3.80;;
23123;SDS011;11731;48.592;8.858;2023-01-19T11:53:13;8.07;;;3.87;;
23123;SDS011;11731;48.592;8.858;2023-01-19T11:55:47;5.47;;;3.80;;
23123;SDS011;11731;48.592;8.858;2023-01-19T11:58:18;5.50;;;3.50;;
23123;SDS011;11731;48.592;8.858;2023-01-19T12:00:47;7.23;;;3.93;;
23123;SDS011;11731;48.592;8.858;2023-01-19T12:03:18;6.53;;;3.47;;
23123;SDS011;11731;48.592;8.858;2023-01-19T12:05:50;4.53;;;2.67;;
23123;SDS011;11731;48.592;8.858;2023-01-19T12:08:20;3.77;;;3.00;;
23123;SDS011;11731;48.592;8.858;2023-01-19T12:10:51;2.60;;;2.40;;
23123;SDS011;11731;48.592;8.858;2023-01-19T12:13:21;2.90;;;2.10;;
23123;SDS011;11731;48.592;8.858;2023-01-19T12:15:50;4.60;;;2.13;;
23123;SDS011;11731;48.592;8.858;2023-01-19T12:18:22;2.63;;;2.10;;
23123;SDS011;11731;48.592;8.858;2023-01-19T12:20:52;3.20;;;1.70;;
23123;SDS011;11731;48.592;8.858;2023-01-19T12:23:27;2.83;;;2.00;;
23123;SDS011;11731;48.592;8.858;2023-01-19T12:26:07;4.53;;;1.97;;
23123;SDS011;11731;48.592;8.858;2023-01-19T12:28:57;3.80;;;1.83;;
23123;SDS011;11731;48.592;8.858;2023-01-19T12:31:28;2.37;;;1.90;;
23123;SDS011;11731;48.592;8.858;2023-01-19T12:37:05;3.57;;;2.00;;
23123;SDS011;11731;48.592;8.858;2023-01-19T12:39:54;1.90;;;1.60;;
23123;SDS011;11731;48.592;8.858;2023-01-19T12:42:23;2.73;;;1.90;;
23123;SDS011;11731;48.592;8.858;2023-01-19T12:44:51;3.20;;;1.90;;
23123;SDS011;11731;48.592;8.858;2023-01-19T12:47:31;2.30;;;1.83;;
23123;SDS011;11731;48.592;8.858;2023-01-19T12:50:02;2.67;;;2.00;;
23123;SDS011;11731;48.592;8.858;2023-01-19T12:52:31;1.70;;;1.60;;
23123;SDS011;11731;48.592;8.858;2023-01-19T12:55:13;3.33;;;2.20;;
23123;SDS011;11731;48.592;8.858;2023-01-19T12:57:47;2.63;;;1.83;;
23123;SDS011;11731;48.592;8.858;2023-01-19T13:06:09;2.50;;;2.00;;
23123;SDS011;11731;48.592;8.858;2023-01-19T13:08:55;3.10;;;2.23;;
23123;SDS011;11731;48.592;8.858;2023-01-19T13:11:25;2.93;;;1.90;;
23123;SDS011;11731;48.592;8.858;2023-01-19T13:17:03;2.60;;;1.90;;
23123;SDS011;11731;48.592;8.858;2023-01-19T13:19:45;2.83;;;2.10;;
23123;SDS011;11731;48.592;8.858;2023-01-19T13:25:20;2.27;;;1.70;;
23123;SDS011;11731;48.592;8.858;2023-01-19T13:27:54;2.10;;;1.83;;
23123;SDS011;11731;48.592;8.858;2023-01-19T13:30:22;3.83;;;2.40;;
23123;SDS011;11731;48.592;8.858;2023-01-19T13:32:52;2.73;;;2.13;;
23123;SDS011;11731;48.592;8.858;2023-01-19T13:35:21;2.13;;;1.80;;
23123;SDS011;11731;48.592;8.858;2023-01-19T13:37:49;3.83;;;2.00;;
23123;SDS011;11731;48.592;8.858;2023-01-19T13:40:17;3.30;;;1.90;;
23123;SDS011;11731;48.592;8.858;2023-01-19T13:42:48;3.63;;;2.20;;
23123;SDS011;11731;48.592;8.858;2023-01-19T13:45:24;2.73;;;2.00;;
23123;SDS011;11731;48.592;8.858;2023-01-19T13:47:55;4.13;;;2.13;;
23123;SDS011;11731;48.592;8.858;2023-01-19T13:50:25;6.13;;;2.60;;
23123;SDS011;11731;48.592;8.858;2023-01-19T13:52:53;3.83;;;2.30;;
23123;SDS011;11731;48.592;8.858;2023-01-19T13:55:21;4.13;;;2.47;;
23123;SDS011;11731;48.592;8.858;2023-01-19T13:57:48;2.60;;;1.97;;
23123;SDS011;11731;48.592;8.858;2023-01-19T14:00:17;3.67;;;1.77;;
23123;SDS011;11731;48.592;8.858;2023-01-19T14:02:52;2.30;;;1.80;;
23123;SDS011;11731;48.592;8.858;2023-01-19T14:05:22;2.60;;;1.90;;
23123;SDS011;11731;48.592;8.858;2023-01-19T14:08:01;5.00;;;2.50;;
23123;SDS011;11731;48.592;8.858;2023-01-19T14:10:42;4.37;;;2.40;;
23123;SDS011;11731;48.592;8.858;2023-01-19T14:13:12;3.30;;;2.50;;
23123;SDS011;11731;48.592;8.858;2023-01-19T14:15:49;3.23;;;2.40;;
23123;SDS011;11731;48.592;8.858;2023-01-19T14:18:24;3.90;;;2.70;;
23123;SDS011;11731;48.592;8.858;2023-01-19T14:20:59;4.47;;;2.83;;
23123;SDS011;11731;48.592;8.858;2023-01-19T14:23:35;5.33;;;2.80;;
23123;SDS011;11731;48.592;8.858;2023-01-19T14:26:04;3.77;;;2.40;;
23123;SDS011;11731;48.592;8.858;2023-01-19T14:28:33;2.80;;;2.40;;
23123;SDS011;11731;48.592;8.858;2023-01-19T14:31:17;3.37;;;2.00;;
23123;SDS011;11731;48.592;8.858;2023-01-19T14:33:47;2.37;;;2.07;;
23123;SDS011;11731;48.592;8.858;2023-01-19T14:36:25;1.90;;;1.60;;
23123;SDS011;11731;48.592;8.858;2023-01-19T14:38:58;2.00;;;1.80;;
23123;SDS011;11731;48.592;8.858;2023-01-19T14:41:26;2.40;;;1.70;;
23123;SDS011;11731;48.592;8.858;2023-01-19T14:44:01;1.93;;;1.70;;
23123;SDS011;11731;48.592;8.858;2023-01-19T14:46:32;2.73;;;1.80;;
23123;SDS011;11731;48.592;8.858;2023-01-19T14:49:01;3.13;;;1.70;;
23123;SDS011;11731;48.592;8.858;2023-01-19T14:51:31;1.67;;;1.53;;
23123;SDS011;11731;48.592;8.858;2023-01-19T14:53:58;3.40;;;1.80;;
23123;SDS011;11731;48.592;8.858;2023-01-19T14:56:28;1.90;;;1.70;;
23123;SDS011;11731;48.592;8.858;2023-01-19T14:58:57;2.00;;;1.80;;
23123;SDS011;11731;48.592;8.858;2023-01-19T15:01:26;3.17;;;1.73;;
23123;SDS011;11731;48.592;8.858;2023-01-19T15:03:54;2.03;;;1.80;;
23123;SDS011;11731;48.592;8.858;2023-01-19T15:06:23;2.73;;;2.00;;
23123;SDS011;11731;48.592;8.858;2023-01-19T15:08:51;2.87;;;2.40;;
23123;SDS011;11731;48.592;8.858;2023-01-19T15:11:21;7.90;;;2.30;;
23123;SDS011;11731;48.592;8.858;2023-01-19T15:13:49;4.60;;;1.90;;
23123;SDS011;11731;48.592;8.858;2023-01-19T15:16:16;4.00;;;1.87;;
23123;SDS011;11731;48.592;8.858;2023-01-19T15:18:44;2.17;;;1.97;;
23123;SDS011;11731;48.592;8.858;2023-01-19T15:21:11;3.27;;;2.00;;
23123;SDS011;11731;48.592;8.858;2023-01-19T15:23:41;2.13;;;1.93;;
23123;SDS011;11731;48.592;8.858;2023-01-19T15:26:09;2.17;;;1.83;;
23123;SDS011;11731;48.592;8.858;2023-01-19T15:28:40;2.67;;;2.03;;
23123;SDS011;11731;48.592;8.858;2023-01-19T15:31:08;2.33;;;1.90;;
23123;SDS011;11731;48.592;8.858;2023-01-19T15:33:38;2.33;;;2.00;;
23123;SDS011;11731;48.592;8.858;2023-01-19T15:36:09;4.43;;;2.33;;
23123;SDS011;11731;48.592;8.858;2023-01-19T15:38:37;3.47;;;2.07;;
23123;SDS011;11731;48.592;8.858;2023-01-19T15:41:09;2.10;;;1.87;;
23123;SDS011;11731;48.592;8.858;2023-01-19T15:43:40;3.07;;;2.00;;
23123;SDS011;11731;48.592;8.858;2023-01-19T15:46:07;2.57;;;2.10;;